Time;durP1;ratioP1;P1;durP2;ratioP2;P2;SDS_P1;SDS_P2;PMS_P1;PMS_P2;Temp;Humidity;BMP_temperature;BMP_pressure;BME280_temperature;BME280_humidity;BME280_pressure;Samples;Min_cycle;Max_cycle;Signal;HPM_P1;HPM_P2
2023/07/18 00:00:17;;;;;;;3.67;3.05;;;16.10;99.90;;;;;;2093164;28;20028;-70
2023/07/18 00:01:17;;;;;;;6.30;3.10;;;16.10;99.90;;;;;;2094569;28;20138;-70
2023/07/18 00:02:18;;;;;;;7.68;3.50;;;16.10;99.90;;;;;;2093543;28;20290;-70
2023/07/18 00:03:19;;;;;;;4.93;3.55;;;16.10;99.90;;;;;;2093543;28;20166;-70
2023/07/18 00:04:19;;;;;;;3.20;2.90;;;16.10;99.90;;;;;;2094064;28;20024;-70
2023/07/18 00:05:21;;;;;;;4.20;3.33;;;16.10;99.90;;;;;;2092616;28;20048;-70
2023/07/18 00:06:24;;;;;;;4.07;3.40;;;16.10;99.90;;;;;;2092902;28;20056;-70
2023/07/18 00:07:25;;;;;;;3.97;2.92;;;16.10;99.90;;;;;;2094836;28;20028;-70
2023/07/18 00:08:25;;;;;;;5.05;3.45;;;16.10;99.90;;;;;;2092219;28;20051;-70
2023/07/18 00:09:26;;;;;;;6.47;3.45;;;16.10;99.90;;;;;;2093713;28;20047;-70
2023/07/18 00:10:26;;;;;;;5.30;3.30;;;16.10;99.90;;;;;;2091784;28;20039;-70
2023/07/18 00:11:27;;;;;;;4.95;3.35;;;16.10;99.90;;;;;;2093468;28;20029;-70
2023/07/18 00:12:27;;;;;;;4.88;3.40;;;16.10;99.90;;;;;;2094124;28;20059;-70
2023/07/18 00:13:28;;;;;;;4.07;2.92;;;16.10;99.90;;;;;;2092205;28;20567;-70
2023/07/18 00:14:29;;;;;;;3.78;3.15;;;16.10;99.90;;;;;;2092830;28;20086;-70
2023/07/18 00:15:30;;;;;;;4.78;3.22;;;16.10;99.90;;;;;;2093076;28;20033;-70
2023/07/18 00:16:30;;;;;;;6.80;3.70;;;16.10;99.90;;;;;;2093312;28;20048;-70
2023/07/18 00:17:33;;;;;;;4.55;3.20;;;16.10;99.90;;;;;;2091465;28;20485;-70
2023/07/18 00:18:34;;;;;;;3.97;3.10;;;16.10;99.90;;;;;;2091403;28;20021;-70
2023/07/18 00:19:34;;;;;;;9.02;3.08;;;16.10;99.90;;;;;;2092170;28;20526;-70
2023/07/18 00:20:35;;;;;;;7.90;3.67;;;16.10;99.90;;;;;;2092773;28;20048;-70
2023/07/18 00:21:36;;;;;;;6.70;3.40;;;16.10;99.90;;;;;;2093799;28;20077;-70
2023/07/18 00:22:37;;;;;;;4.15;3.08;;;16.10;99.90;;;;;;2093217;28;20040;-70
2023/07/18 00:23:37;;;;;;;5.18;3.22;;;16.10;99.90;;;;;;2094309;28;20016;-70
2023/07/18 00:24:38;;;;;;;4.70;3.63;;;16.10;99.90;;;;;;2090493;28;20032;-70
2023/07/18 00:25:39;;;;;;;3.85;2.95;;;16.10;99.90;;;;;;2091927;28;20028;-70
2023/07/18 00:26:40;;;;;;;4.75;3.08;;;16.10;99.90;;;;;;2091799;28;20040;-70
2023/07/18 00:27:41;;;;;;;3.67;3.13;;;16.10;99.90;;;;;;2092949;28;20033;-70
2023/07/18 00:28:41;;;;;;;4.72;3.25;;;16.10;99.90;;;;;;2092720;28;20059;-70
2023/07/18 00:29:42;;;;;;;6.28;3.08;;;16.10;99.90;;;;;;2092408;28;20020;-70
2023/07/18 00:30:43;;;;;;;4.38;3.10;;;16.10;99.90;;;;;;2092872;28;20040;-70
2023/07/18 00:31:43;;;;;;;6.30;3.53;;;16.10;99.90;;;;;;2094499;28;20027;-70
2023/07/18 00:32:45;;;;;;;5.95;3.38;;;16.10;99.90;;;;;;2093315;28;20115;-70
2023/07/18 00:33:45;;;;;;;3.22;2.92;;;16.10;99.90;;;;;;2092077;28;20025;-70
2023/07/18 00:34:46;;;;;;;4.15;2.92;;;16.10;99.90;;;;;;2092338;28;20056;-70
2023/07/18 00:35:47;;;;;;;4.18;2.85;;;16.10;99.90;;;;;;2091706;28;20457;-70
2023/07/18 00:36:47;;;;;;;3.20;2.90;;;16.10;99.90;;;;;;2093282;28;20115;-70
2023/07/18 00:37:48;;;;;;;5.88;2.72;;;16.10;99.90;;;;;;2092308;28;20027;-70
2023/07/18 00:38:49;;;;;;;4.95;3.20;;;16.10;99.90;;;;;;2095161;28;20025;-70
2023/07/18 00:39:49;;;;;;;5.00;3.63;;;16.10;99.90;;;;;;2096333;28;20028;-70
2023/07/18 00:40:50;;;;;;;3.28;2.92;;;16.10;99.90;;;;;;2091346;28;20051;-70
2023/07/18 00:41:52;;;;;;;4.47;3.28;;;16.10;99.90;;;;;;2093776;28;20078;-70
2023/07/18 00:42:52;;;;;;;3.42;3.08;;;16.10;99.90;;;;;;2091143;28;20492;-70
2023/07/18 00:43:53;;;;;;;5.50;3.50;;;16.10;99.90;;;;;;2093968;28;20472;-70
2023/07/18 00:44:53;;;;;;;5.10;3.83;;;16.10;99.90;;;;;;2093048;28;20029;-70
2023/07/18 00:45:54;;;;;;;4.13;3.20;;;16.10;99.90;;;;;;2092332;28;20039;-70
2023/07/18 00:46:55;;;;;;;5.35;3.10;;;16.10;99.90;;;;;;2091704;28;20020;-70
2023/07/18 00:47:55;;;;;;;4.13;3.03;;;16.10;99.90;;;;;;2090967;28;20033;-70
2023/07/18 00:48:57;;;;;;;3.60;3.00;;;16.10;99.90;;;;;;2091999;28;20056;-70
2023/07/18 00:49:58;;;;;;;3.60;2.78;;;16.10;99.90;;;;;;2093374;28;20082;-70
2023/07/18 00:51:00;;;;;;;4.28;3.30;;;16.10;99.90;;;;;;2094034;28;20517;-70
2023/07/18 00:52:01;;;;;;;9.88;3.28;;;16.10;99.90;;;;;;2091901;28;20579;-70
2023/07/18 00:53:02;;;;;;;4.00;3.33;;;16.10;99.90;;;;;;2093518;28;20381;-70
2023/07/18 00:54:03;;;;;;;7.50;3.72;;;16.10;99.90;;;;;;2090409;28;20033;-70
2023/07/18 00:55:05;;;;;;;5.20;3.50;;;16.10;99.90;;;;;;2093818;28;20442;-70
2023/07/18 00:56:06;;;;;;;4.50;2.85;;;16.10;99.90;;;;;;2091532;28;20469;-70
2023/07/18 00:57:07;;;;;;;5.22;3.60;;;16.10;99.90;;;;;;2094565;28;20382;-70
2023/07/18 00:58:08;;;;;;;5.07;3.17;;;16.10;99.90;;;;;;2093478;28;20017;-70
2023/07/18 00:59:10;;;;;;;5.43;3.13;;;16.10;99.90;;;;;;2092162;28;20022;-70
2023/07/18 01:00:12;;;;;;;4.72;2.65;;;16.10;99.90;;;;;;2092259;28;20095;-70
2023/07/18 01:01:13;;;;;;;4.55;3.38;;;16.10;99.90;;;;;;2089859;28;20024;-70
2023/07/18 01:02:13;;;;;;;5.18;3.15;;;16.10;99.90;;;;;;2092847;28;20059;-70
2023/07/18 01:03:16;;;;;;;3.95;2.50;;;16.10;99.90;;;;;;2091692;28;20126;-70
2023/07/18 01:04:18;;;;;;;4.25;3.15;;;16.10;99.90;;;;;;2093601;28;20055;-70
2023/07/18 01:05:19;;;;;;;4.22;2.83;;;16.10;99.90;;;;;;2091940;28;20190;-70
2023/07/18 01:06:21;;;;;;;3.55;2.80;;;16.10;99.90;;;;;;2091846;28;20392;-70
2023/07/18 01:07:22;;;;;;;4.93;3.40;;;16.10;99.90;;;;;;2091713;28;20075;-70
2023/07/18 01:08:22;;;;;;;12.85;3.40;;;16.10;99.90;;;;;;2095953;28;20013;-70
2023/07/18 01:09:23;;;;;;;5.10;3.50;;;16.10;99.90;;;;;;2095921;28;20099;-70
2023/07/18 01:10:25;;;;;;;5.55;2.88;;;16.10;99.90;;;;;;2091985;28;20017;-70
2023/07/18 01:11:26;;;;;;;6.13;3.33;;;16.10;99.90;;;;;;2093417;28;20027;-70
2023/07/18 01:12:27;;;;;;;5.53;3.40;;;16.10;99.90;;;;;;2092728;28;20032;-70
2023/07/18 01:13:27;;;;;;;5.45;3.20;;;16.00;99.90;;;;;;2091829;28;20492;-70
2023/07/18 01:14:28;;;;;;;6.43;3.15;;;16.00;99.90;;;;;;2094162;28;20476;-70
2023/07/18 01:15:32;;;;;;;4.30;3.25;;;16.10;99.90;;;;;;2092614;28;20020;-70
2023/07/18 01:16:32;;;;;;;5.30;3.30;;;16.10;99.90;;;;;;2091856;28;20082;-70
2023/07/18 01:17:33;;;;;;;5.57;3.35;;;16.10;99.90;;;;;;2092540;28;20054;-70
2023/07/18 01:18:34;;;;;;;4.07;3.00;;;16.10;99.90;;;;;;2092987;28;20036;-70
2023/07/18 01:19:35;;;;;;;3.70;2.95;;;16.00;99.90;;;;;;2092010;28;20079;-70
2023/07/18 01:20:36;;;;;;;4.25;3.75;;;16.00;99.90;;;;;;2092938;28;20017;-70
2023/07/18 01:21:37;;;;;;;5.50;3.10;;;16.00;99.90;;;;;;2092304;28;20473;-70
2023/07/18 01:22:38;;;;;;;4.25;2.60;;;16.00;99.90;;;;;;2090991;28;20025;-70
2023/07/18 01:23:39;;;;;;;4.68;3.30;;;16.00;99.90;;;;;;2091204;28;20033;-70
2023/07/18 01:24:39;;;;;;;3.25;2.92;;;16.00;99.90;;;;;;2091011;28;20057;-70
2023/07/18 01:25:40;;;;;;;4.47;3.25;;;16.00;99.90;;;;;;2091225;28;20021;-70
2023/07/18 01:26:41;;;;;;;5.15;3.03;;;16.00;99.90;;;;;;2091516;28;20082;-70
2023/07/18 01:27:49;;;;;;;4.65;2.90;;;16.00;99.90;;;;;;2090828;28;20032;-70
2023/07/18 01:28:49;;;;;;;4.30;3.53;;;16.00;99.90;;;;;;2091144;28;20028;-70
2023/07/18 01:29:51;;;;;;;4.63;2.97;;;16.00;99.90;;;;;;2090453;28;20025;-70
2023/07/18 01:30:52;;;;;;;3.15;2.65;;;16.00;99.90;;;;;;2092273;28;20095;-70
2023/07/18 01:31:52;;;;;;;3.03;2.50;;;16.00;99.90;;;;;;2093276;28;20107;-70
2023/07/18 01:32:54;;;;;;;3.08;2.78;;;16.00;99.90;;;;;;2091891;28;20028;-70
2023/07/18 01:33:54;;;;;;;3.28;2.70;;;16.00;99.90;;;;;;2091070;28;20139;-70
2023/07/18 01:34:55;;;;;;;4.82;2.83;;;16.00;99.90;;;;;;2089658;28;20036;-70
2023/07/18 01:35:55;;;;;;;6.07;3.78;;;16.00;99.90;;;;;;2091799;28;20024;-70
2023/07/18 01:36:56;;;;;;;3.40;2.45;;;15.90;99.90;;;;;;2091683;28;20365;-70
2023/07/18 01:37:58;;;;;;;4.50;2.80;;;16.00;99.90;;;;;;2092121;28;20020;-70
2023/07/18 01:38:59;;;;;;;5.15;3.17;;;16.00;99.90;;;;;;2090663;28;20032;-70
2023/07/18 01:40:00;;;;;;;5.63;2.78;;;15.90;99.90;;;;;;2092177;28;20381;-70
2023/07/18 01:41:01;;;;;;;3.67;3.17;;;15.90;99.90;;;;;;2090125;28;20046;-70
2023/07/18 01:42:01;;;;;;;6.30;3.10;;;16.00;99.90;;;;;;2092049;28;20512;-70
2023/07/18 01:43:03;;;;;;;4.57;3.03;;;15.90;99.90;;;;;;2091224;28;20371;-70
2023/07/18 01:44:04;;;;;;;3.67;2.60;;;15.90;99.90;;;;;;2094165;28;20020;-70
2023/07/18 01:45:05;;;;;;;4.55;2.67;;;15.90;99.90;;;;;;2094343;28;20047;-70
2023/07/18 01:46:06;;;;;;;7.45;3.10;;;15.90;99.90;;;;;;2091683;28;20016;-70
2023/07/18 01:47:06;;;;;;;6.25;3.35;;;15.90;99.90;;;;;;2093614;28;20030;-70
2023/07/18 01:48:07;;;;;;;3.50;2.85;;;15.90;99.90;;;;;;2092872;28;20038;-70
2023/07/18 01:49:08;;;;;;;3.10;2.88;;;15.90;99.90;;;;;;2091945;28;20473;-70
2023/07/18 01:50:09;;;;;;;2.80;2.50;;;15.80;99.90;;;;;;2091625;28;20020;-70
2023/07/18 01:51:09;;;;;;;3.22;2.65;;;15.80;99.90;;;;;;2092307;28;20436;-70
2023/07/18 01:52:10;;;;;;;4.70;3.42;;;15.80;99.90;;;;;;2092398;28;20075;-70
2023/07/18 01:53:11;;;;;;;4.55;3.03;;;15.80;99.90;;;;;;2095352;28;20607;-70
2023/07/18 01:54:11;;;;;;;3.83;2.80;;;15.80;99.90;;;;;;2095468;28;20055;-70
2023/07/18 01:55:12;;;;;;;6.15;3.38;;;15.80;99.90;;;;;;2091885;28;20060;-70
2023/07/18 01:56:12;;;;;;;2.97;2.67;;;15.80;99.90;;;;;;2091289;28;20051;-70
2023/07/18 01:57:13;;;;;;;4.93;3.00;;;15.80;99.90;;;;;;2091208;28;20095;-70
2023/07/18 01:58:13;;;;;;;4.35;3.15;;;15.80;99.90;;;;;;2092685;28;20408;-70
2023/07/18 01:59:14;;;;;;;4.68;3.30;;;15.80;99.90;;;;;;2091509;28;20025;-70
2023/07/18 02:00:20;;;;;;;5.30;3.17;;;15.80;99.90;;;;;;2090321;28;20022;-70
2023/07/18 02:01:21;;;;;;;4.30;2.92;;;15.80;99.90;;;;;;2091751;28;20021;-70
2023/07/18 02:02:21;;;;;;;3.05;2.75;;;15.70;99.90;;;;;;2090588;28;20039;-70
2023/07/18 02:03:22;;;;;;;3.85;3.30;;;15.70;99.90;;;;;;2092443;28;20138;-70
2023/07/18 02:04:23;;;;;;;4.05;3.20;;;15.70;99.90;;;;;;2092570;28;20043;-70
2023/07/18 02:05:27;;;;;;;5.05;3.20;;;15.70;99.90;;;;;;2090360;28;20025;-70
2023/07/18 02:06:27;;;;;;;4.47;3.20;;;15.70;99.90;;;;;;2093975;28;20089;-70
2023/07/18 02:07:28;;;;;;;3.28;2.80;;;15.70;99.90;;;;;;2091370;28;20017;-70
2023/07/18 02:08:28;;;;;;;3.15;2.60;;;15.60;99.90;;;;;;2091225;28;20033;-70
2023/07/18 02:09:29;;;;;;;4.75;2.65;;;15.60;99.90;;;;;;2092271;28;20101;-70
2023/07/18 02:10:29;;;;;;;4.78;2.78;;;15.60;99.90;;;;;;2092015;28;20412;-70
2023/07/18 02:11:30;;;;;;;4.70;2.90;;;15.60;99.90;;;;;;2092212;28;20053;-70
2023/07/18 02:12:30;;;;;;;6.30;3.03;;;15.60;99.90;;;;;;2091905;28;20103;-70
2023/07/18 02:13:31;;;;;;;3.88;3.03;;;15.60;99.90;;;;;;2090445;28;20400;-70
2023/07/18 02:14:31;;;;;;;5.10;3.08;;;15.60;99.90;;;;;;2092111;28;20066;-70
2023/07/18 02:15:32;;;;;;;7.82;3.17;;;15.60;99.90;;;;;;2093766;28;20025;-70
2023/07/18 02:16:32;;;;;;;3.63;2.67;;;15.60;99.90;;;;;;2090991;28;20028;-70
2023/07/18 02:17:34;;;;;;;3.67;2.97;;;15.60;99.90;;;;;;2093331;28;20017;-70
2023/07/18 02:18:34;;;;;;;3.50;2.78;;;15.60;99.90;;;;;;2092050;28;20016;-70
2023/07/18 02:19:36;;;;;;;6.22;3.25;;;15.60;99.90;;;;;;2092081;28;20017;-70
2023/07/18 02:20:36;;;;;;;5.07;3.38;;;15.50;99.90;;;;;;2090907;28;20028;-70
2023/07/18 02:21:37;;;;;;;4.90;2.88;;;15.50;99.90;;;;;;2090644;28;20021;-70
2023/07/18 02:22:39;;;;;;;6.95;3.15;;;15.50;99.90;;;;;;2091684;28;20484;-70
2023/07/18 02:23:40;;;;;;;4.13;2.55;;;15.50;99.90;;;;;;2091412;28;20712;-70
2023/07/18 02:24:41;;;;;;;3.22;2.80;;;15.50;99.90;;;;;;2091311;28;20434;-70
2023/07/18 02:25:41;;;;;;;6.55;3.17;;;15.50;99.90;;;;;;2091910;28;20074;-70
2023/07/18 02:26:42;;;;;;;4.55;2.88;;;15.50;99.90;;;;;;2089091;28;20028;-70
2023/07/18 02:27:43;;;;;;;4.90;2.75;;;15.50;99.90;;;;;;2091917;28;20450;-70
2023/07/18 02:28:43;;;;;;;3.60;3.20;;;15.50;99.90;;;;;;2090681;28;20021;-70
2023/07/18 02:29:46;;;;;;;3.25;2.70;;;15.50;99.90;;;;;;2092180;28;20025;-70
2023/07/18 02:30:47;;;;;;;3.88;3.05;;;15.50;99.90;;;;;;2092686;28;20389;-70
2023/07/18 02:31:48;;;;;;;3.00;2.67;;;15.50;99.90;;;;;;2092969;28;20052;-70
2023/07/18 02:32:51;;;;;;;5.13;3.28;;;15.40;99.90;;;;;;2091698;28;20063;-70
2023/07/18 02:33:51;;;;;;;5.05;2.88;;;15.40;99.90;;;;;;2091255;28;20127;-70
2023/07/18 02:34:52;;;;;;;3.60;3.00;;;15.40;99.90;;;;;;2092290;28;20694;-70
2023/07/18 02:35:52;;;;;;;4.00;2.78;;;15.40;99.90;;;;;;2092200;28;20067;-70
2023/07/18 02:36:53;;;;;;;5.97;3.28;;;15.40;99.90;;;;;;2091297;28;20048;-70
2023/07/18 02:37:54;;;;;;;4.82;3.45;;;15.40;99.90;;;;;;2092906;28;20028;-70
2023/07/18 02:38:55;;;;;;;4.15;3.40;;;15.40;99.90;;;;;;2092855;28;20489;-70
2023/07/18 02:39:55;;;;;;;3.97;3.10;;;15.40;99.90;;;;;;2090677;28;20027;-70
2023/07/18 02:40:56;;;;;;;4.65;3.10;;;15.30;99.90;;;;;;2092486;28;20513;-70
2023/07/18 02:41:56;;;;;;;4.15;3.40;;;15.30;99.90;;;;;;2093852;28;20020;-70
2023/07/18 02:42:57;;;;;;;3.38;2.88;;;15.30;99.90;;;;;;2091125;28;20546;-70
2023/07/18 02:43:57;;;;;;;4.63;2.50;;;15.30;99.90;;;;;;2089784;28;20021;-70
2023/07/18 02:44:58;;;;;;;4.72;3.30;;;15.30;99.90;;;;;;2091624;28;20065;-70
2023/07/18 02:45:58;;;;;;;5.13;3.40;;;15.30;99.90;;;;;;2091644;28;20551;-70
2023/07/18 02:46:59;;;;;;;4.28;3.42;;;15.30;99.90;;;;;;2091900;28;20021;-70
2023/07/18 02:47:59;;;;;;;3.42;3.13;;;15.30;99.90;;;;;;2092502;28;20488;-70
2023/07/18 02:49:01;;;;;;;4.03;2.67;;;15.30;99.90;;;;;;2092075;28;20064;-70
2023/07/18 02:50:01;;;;;;;3.20;2.97;;;15.30;99.90;;;;;;2090971;28;20044;-70
2023/07/18 02:51:02;;;;;;;5.13;3.17;;;15.30;99.90;;;;;;2092872;28;20472;-70
2023/07/18 02:52:03;;;;;;;3.53;2.67;;;15.30;99.90;;;;;;2090998;28;20112;-70
2023/07/18 02:53:03;;;;;;;2.95;2.67;;;15.30;99.90;;;;;;2091784;28;20101;-70
2023/07/18 02:54:04;;;;;;;4.35;3.33;;;15.30;99.90;;;;;;2092867;28;20032;-70
2023/07/18 02:55:05;;;;;;;5.28;3.50;;;15.30;99.90;;;;;;2092685;28;20028;-70
2023/07/18 02:56:06;;;;;;;4.03;3.30;;;15.30;99.90;;;;;;2091432;28;20036;-70
2023/07/18 02:57:06;;;;;;;7.30;3.20;;;15.30;99.90;;;;;;2088801;28;20570;-70
2023/07/18 02:58:07;;;;;;;5.40;3.50;;;15.20;99.90;;;;;;2092142;28;20119;-70
2023/07/18 02:59:07;;;;;;;4.80;3.25;;;15.20;99.90;;;;;;2091780;28;20100;-70
2023/07/18 03:00:19;;;;;;;3.50;2.70;;;15.20;99.90;;;;;;2091858;28;20051;-70
2023/07/18 03:01:20;;;;;;;7.47;3.10;;;15.20;99.90;;;;;;2092086;28;20029;-70
2023/07/18 03:02:20;;;;;;;4.10;2.78;;;15.20;99.90;;;;;;2090221;28;20033;-70
2023/07/18 03:03:22;;;;;;;4.30;2.88;;;15.20;99.90;;;;;;2093535;28;20021;-70
2023/07/18 03:04:28;;;;;;;3.65;3.08;;;15.20;99.90;;;;;;2091421;28;20017;-70
2023/07/18 03:05:32;;;;;;;4.10;3.35;;;15.20;99.90;;;;;;2090531;28;20052;-70
2023/07/18 03:06:33;;;;;;;5.32;3.47;;;15.20;99.90;;;;;;2091562;28;20389;-70
2023/07/18 03:07:33;;;;;;;3.63;3.00;;;15.20;99.90;;;;;;2091473;28;20076;-70
2023/07/18 03:08:36;;;;;;;3.70;3.38;;;15.20;99.90;;;;;;2088920;28;20049;-70
2023/07/18 03:09:37;;;;;;;4.40;3.13;;;15.20;99.90;;;;;;2092274;28;20025;-70
2023/07/18 03:10:38;;;;;;;5.47;2.80;;;15.10;99.90;;;;;;2091139;28;20230;-70
2023/07/18 03:11:39;;;;;;;7.15;2.88;;;15.10;99.90;;;;;;2091052;28;20025;-70
2023/07/18 03:12:42;;;;;;;3.63;3.33;;;15.10;99.90;;;;;;2090439;28;20029;-70
2023/07/18 03:13:43;;;;;;;3.20;2.90;;;15.10;99.90;;;;;;2090718;28;20175;-70
2023/07/18 03:14:43;;;;;;;4.32;3.08;;;15.10;99.90;;;;;;2091137;28;20031;-70
2023/07/18 03:15:44;;;;;;;3.72;2.80;;;15.10;99.90;;;;;;2090411;28;20481;-70
2023/07/18 03:16:45;;;;;;;4.97;2.80;;;15.10;99.90;;;;;;2090878;28;20025;-70
2023/07/18 03:17:45;;;;;;;5.18;2.80;;;15.10;99.90;;;;;;2091605;28;20032;-70
2023/07/18 03:18:46;;;;;;;3.15;2.70;;;15.10;99.90;;;;;;2092011;28;20031;-70
2023/07/18 03:19:47;;;;;;;5.05;3.42;;;15.10;99.90;;;;;;2091438;28;20039;-70
2023/07/18 03:20:47;;;;;;;4.95;3.40;;;15.10;99.90;;;;;;2089182;28;20556;-70
2023/07/18 03:21:48;;;;;;;3.47;2.67;;;15.10;99.90;;;;;;2090531;28;20405;-70
2023/07/18 03:22:50;;;;;;;3.85;2.90;;;15.10;99.90;;;;;;2091542;28;20082;-70
2023/07/18 03:23:50;;;;;;;3.65;2.90;;;15.10;99.90;;;;;;2091807;28;20407;-70
2023/07/18 03:24:54;;;;;;;6.75;3.20;;;15.10;99.90;;;;;;2091600;28;20175;-70
2023/07/18 03:25:55;;;;;;;4.30;3.03;;;15.10;99.90;;;;;;2091135;28;20029;-70
2023/07/18 03:26:56;;;;;;;5.82;3.22;;;15.10;99.90;;;;;;2091149;28;20108;-70
2023/07/18 03:27:56;;;;;;;5.25;2.63;;;15.10;99.90;;;;;;2091695;28;20033;-70
2023/07/18 03:28:57;;;;;;;5.07;3.25;;;15.10;99.90;;;;;;2090848;28;20071;-70
2023/07/18 03:29:57;;;;;;;5.90;4.05;;;15.10;99.90;;;;;;2089539;28;20025;-70
2023/07/18 03:30:58;;;;;;;4.65;3.03;;;15.10;99.90;;;;;;2091653;28;20029;-70
2023/07/18 03:31:59;;;;;;;3.53;3.22;;;15.00;99.90;;;;;;2091964;28;20061;-70
2023/07/18 03:33:00;;;;;;;3.60;3.03;;;15.10;99.90;;;;;;2089770;28;20473;-70
2023/07/18 03:34:01;;;;;;;3.78;3.03;;;15.10;99.90;;;;;;2092648;28;20397;-70
2023/07/18 03:35:02;;;;;;;4.10;3.33;;;15.00;99.90;;;;;;2090630;28;20032;-70
2023/07/18 03:36:05;;;;;;;4.80;3.40;;;15.10;99.90;;;;;;2090141;28;20032;-70
2023/07/18 03:37:06;;;;;;;2.80;2.60;;;15.10;99.90;;;;;;2091816;28;20456;-70
2023/07/18 03:38:07;;;;;;;3.97;3.30;;;15.10;99.90;;;;;;2091084;28;20025;-70
2023/07/18 03:39:07;;;;;;;4.20;2.47;;;15.00;99.90;;;;;;2091216;28;20025;-70
2023/07/18 03:40:10;;;;;;;4.00;3.38;;;15.10;99.90;;;;;;2089564;28;20090;-70
2023/07/18 03:41:10;;;;;;;5.30;3.38;;;15.00;99.90;;;;;;2089345;28;20029;-70
2023/07/18 03:42:11;;;;;;;5.10;3.25;;;15.00;99.90;;;;;;2092363;28;20105;-70
2023/07/18 03:43:11;;;;;;;3.95;3.45;;;15.00;99.90;;;;;;2091820;28;20020;-70
2023/07/18 03:44:12;;;;;;;5.00;2.75;;;15.00;99.90;;;;;;2091107;28;20031;-70
2023/07/18 03:45:13;;;;;;;7.00;3.58;;;15.00;99.90;;;;;;2093610;28;20024;-70
2023/07/18 03:46:13;;;;;;;5.55;3.45;;;15.00;99.90;;;;;;2091147;28;20091;-70
2023/07/18 03:47:14;;;;;;;4.88;3.20;;;15.00;99.90;;;;;;2091461;28;20016;-70
2023/07/18 03:48:14;;;;;;;3.13;2.85;;;15.00;99.90;;;;;;2090854;28;20036;-70
2023/07/18 03:49:15;;;;;;;7.05;3.10;;;15.00;99.90;;;;;;2090447;28;20925;-70
2023/07/18 03:50:17;;;;;;;3.65;2.95;;;15.00;99.90;;;;;;2091102;28;20788;-70
2023/07/18 03:51:17;;;;;;;4.70;3.28;;;15.10;99.90;;;;;;2091183;28;20016;-70
2023/07/18 03:52:18;;;;;;;3.92;3.10;;;15.00;99.90;;;;;;2090884;28;20481;-70
2023/07/18 03:53:19;;;;;;;5.60;2.90;;;15.00;99.90;;;;;;2089809;28;20020;-70
2023/07/18 03:54:20;;;;;;;4.07;3.00;;;15.00;99.90;;;;;;2090805;28;20028;-70
2023/07/18 03:55:21;;;;;;;4.93;3.17;;;15.00;99.90;;;;;;2088771;28;20498;-70
2023/07/18 03:56:21;;;;;;;4.32;2.92;;;15.00;99.90;;;;;;2091165;28;20036;-71
2023/07/18 03:57:22;;;;;;;6.50;3.25;;;15.10;99.90;;;;;;2091558;28;20020;-71
2023/07/18 03:58:22;;;;;;;7.65;3.72;;;15.10;99.90;;;;;;2093139;28;20029;-70
2023/07/18 03:59:23;;;;;;;6.85;4.15;;;15.10;99.90;;;;;;2092129;28;20035;-70
2023/07/18 04:00:24;;;;;;;5.68;3.17;;;15.10;99.90;;;;;;2092468;28;20021;-70
2023/07/18 04:01:24;;;;;;;6.57;3.60;;;15.10;99.90;;;;;;2091308;28;20354;-70
2023/07/18 04:02:25;;;;;;;5.72;3.28;;;15.10;99.90;;;;;;2093864;28;20096;-70
2023/07/18 04:03:25;;;;;;;4.43;3.42;;;15.10;99.90;;;;;;2092669;28;20496;-70
2023/07/18 04:04:27;;;;;;;6.03;4.13;;;15.10;99.90;;;;;;2092576;28;20565;-70
2023/07/18 04:05:27;;;;;;;6.47;4.00;;;15.10;99.90;;;;;;2093223;28;20098;-70
2023/07/18 04:06:28;;;;;;;4.75;3.50;;;15.10;99.90;;;;;;2092999;28;20078;-70
2023/07/18 04:07:29;;;;;;;3.83;3.08;;;15.10;99.90;;;;;;2093627;28;20241;-70
2023/07/18 04:08:30;;;;;;;4.47;3.33;;;15.10;99.90;;;;;;2094148;28;20021;-70
2023/07/18 04:09:30;;;;;;;4.95;3.63;;;15.10;99.90;;;;;;2093296;28;20971;-70
2023/07/18 04:10:32;;;;;;;4.00;2.80;;;15.10;99.90;;;;;;2091637;28;20025;-70
2023/07/18 04:11:33;;;;;;;4.18;3.58;;;15.10;99.90;;;;;;2092282;28;20029;-71
2023/07/18 04:12:34;;;;;;;4.88;3.58;;;15.10;99.90;;;;;;2092373;28;20030;-70
2023/07/18 04:13:34;;;;;;;4.55;3.20;;;15.10;99.90;;;;;;2092981;28;20376;-70
2023/07/18 04:14:38;;;;;;;6.65;3.50;;;15.10;99.90;;;;;;2091621;28;20068;-70
2023/07/18 04:15:38;;;;;;;5.70;3.80;;;15.20;99.90;;;;;;2092968;28;20021;-70
2023/07/18 04:16:39;;;;;;;5.90;4.15;;;15.20;99.90;;;;;;2093617;28;20488;-70
2023/07/18 04:17:40;;;;;;;4.78;3.30;;;15.20;99.90;;;;;;2091944;28;20171;-70
2023/07/18 04:18:41;;;;;;;4.10;3.70;;;15.20;99.90;;;;;;2094032;28;20044;-70
2023/07/18 04:19:41;;;;;;;4.13;3.30;;;15.30;99.90;;;;;;2093680;28;20050;-70
2023/07/18 04:20:42;;;;;;;3.90;2.90;;;15.30;99.90;;;;;;2094347;28;20104;-70
2023/07/18 04:21:42;;;;;;;5.40;3.53;;;15.30;99.90;;;;;;2093381;28;20097;-70
2023/07/18 04:22:43;;;;;;;4.57;3.70;;;15.30;99.90;;;;;;2092468;28;20064;-70
2023/07/18 04:23:43;;;;;;;8.00;3.90;;;15.30;99.90;;;;;;2091532;28;20029;-70
2023/07/18 04:24:44;;;;;;;4.30;3.20;;;15.30;99.90;;;;;;2092444;28;20490;-70
2023/07/18 04:26:00;;;;;;;8.70;3.30;;;15.30;99.90;;;;;;2091499;28;20048;-70
2023/07/18 04:27:01;;;;;;;5.97;3.80;;;15.30;99.90;;;;;;2091370;28;20021;-70
2023/07/18 04:28:02;;;;;;;4.75;4.00;;;15.30;99.90;;;;;;2091972;28;20036;-70
2023/07/18 04:29:05;;;;;;;5.40;3.75;;;15.40;99.90;;;;;;2092668;28;20021;-70
2023/07/18 04:30:06;;;;;;;5.25;3.20;;;15.40;99.90;;;;;;2092443;28;20111;-70
2023/07/18 04:31:07;;;;;;;6.72;4.28;;;15.40;99.90;;;;;;2094861;28;20078;-70
2023/07/18 04:32:11;;;;;;;6.53;3.90;;;15.40;99.90;;;;;;2094259;28;20081;-70
2023/07/18 04:33:12;;;;;;;4.25;3.42;;;15.50;99.90;;;;;;2092270;28;20024;-70
2023/07/18 04:34:15;;;;;;;4.28;3.58;;;15.70;99.90;;;;;;2092961;28;20082;-70
2023/07/18 04:35:16;;;;;;;5.75;3.50;;;15.90;99.90;;;;;;2094996;28;20480;-70
2023/07/18 04:36:17;;;;;;;6.82;3.55;;;16.20;99.90;;;;;;2093359;28;20409;-70
2023/07/18 04:37:17;;;;;;;6.93;3.28;;;16.40;99.90;;;;;;2093139;28;20362;-70
2023/07/18 04:38:18;;;;;;;4.32;3.13;;;16.60;99.90;;;;;;2093051;28;20020;-70
2023/07/18 04:39:19;;;;;;;5.35;3.80;;;16.70;99.90;;;;;;2093282;28;20102;-70
2023/07/18 04:40:19;;;;;;;11.38;3.88;;;16.70;99.90;;;;;;2091269;28;20055;-70
2023/07/18 04:41:20;;;;;;;5.93;3.10;;;16.70;99.90;;;;;;2091692;28;20029;-70
2023/07/18 04:42:21;;;;;;;3.88;3.15;;;16.70;99.90;;;;;;2091116;28;20598;-70
2023/07/18 04:43:21;;;;;;;4.47;2.75;;;16.70;99.90;;;;;;2092000;28;20025;-70
2023/07/18 04:44:22;;;;;;;4.85;3.20;;;16.60;99.90;;;;;;2091966;28;20024;-70
2023/07/18 04:45:23;;;;;;;4.80;3.47;;;16.60;99.90;;;;;;2092303;28;20027;-70
2023/07/18 04:46:23;;;;;;;4.80;3.13;;;16.60;99.90;;;;;;2093889;28;20471;-70
2023/07/18 04:47:24;;;;;;;4.18;3.55;;;16.60;99.90;;;;;;2093349;28;20062;-70
2023/07/18 04:48:25;;;;;;;4.00;2.97;;;16.60;99.90;;;;;;2092749;28;20078;-70
2023/07/18 04:49:25;;;;;;;4.38;3.15;;;16.70;99.90;;;;;;2092385;28;20100;-70
2023/07/18 04:50:28;;;;;;;5.88;3.30;;;16.70;99.90;;;;;;2091192;28;20024;-70
2023/07/18 04:51:28;;;;;;;4.47;3.30;;;16.80;99.90;;;;;;2090870;28;20031;-71
2023/07/18 04:52:29;;;;;;;4.18;2.83;;;16.80;99.90;;;;;;2091318;28;20021;-71
2023/07/18 04:53:31;;;;;;;5.78;3.50;;;16.90;99.90;;;;;;2091399;28;20091;-71
2023/07/18 04:54:32;;;;;;;7.13;3.55;;;17.00;99.90;;;;;;2092249;28;20029;-71
2023/07/18 04:55:34;;;;;;;5.47;3.28;;;17.00;99.90;;;;;;2091125;28;20411;-71
2023/07/18 04:56:35;;;;;;;3.03;2.67;;;17.10;99.90;;;;;;2091593;28;20035;-71
2023/07/18 04:57:35;;;;;;;7.20;3.45;;;17.20;99.90;;;;;;2092870;28;20056;-71
2023/07/18 04:58:36;;;;;;;4.32;3.17;;;17.30;99.90;;;;;;2091956;28;20032;-71
2023/07/18 04:59:36;;;;;;;6.90;3.38;;;17.40;99.90;;;;;;2092757;28;20016;-71
2023/07/18 05:00:37;;;;;;;5.88;3.47;;;17.50;99.90;;;;;;2092696;28;20563;-71
2023/07/18 05:01:40;;;;;;;3.17;2.88;;;17.60;99.90;;;;;;2093682;28;20065;-71
2023/07/18 05:02:40;;;;;;;5.07;3.08;;;17.70;99.90;;;;;;2091450;28;20135;-71
2023/07/18 05:03:41;;;;;;;5.47;3.15;;;17.80;99.90;;;;;;2091702;28;20017;-71
2023/07/18 05:04:41;;;;;;;3.47;2.60;;;17.90;99.90;;;;;;2091086;28;20691;-71
2023/07/18 05:05:42;;;;;;;4.15;2.80;;;18.00;99.90;;;;;;2091415;28;20025;-71
2023/07/18 05:06:42;;;;;;;3.28;2.65;;;18.00;99.90;;;;;;2090926;28;20128;-71
2023/07/18 05:07:44;;;;;;;4.88;3.85;;;18.10;99.90;;;;;;2091571;28;20028;-71
2023/07/18 05:08:45;;;;;;;3.80;2.80;;;18.20;99.90;;;;;;2092267;28;20024;-71
2023/07/18 05:09:46;;;;;;;5.45;3.13;;;18.30;99.90;;;;;;2091255;28;20032;-71
2023/07/18 05:10:46;;;;;;;4.45;2.67;;;18.30;99.90;;;;;;2093618;28;20033;-71
2023/07/18 05:11:47;;;;;;;3.88;3.13;;;18.40;99.90;;;;;;2093967;28;20583;-71
2023/07/18 05:12:53;;;;;;;4.30;2.88;;;18.50;99.90;;;;;;2093430;28;20028;-71
2023/07/18 05:13:53;;;;;;;6.32;3.00;;;18.60;99.90;;;;;;2093503;28;20473;-71
2023/07/18 05:14:54;;;;;;;3.95;2.90;;;18.70;99.90;;;;;;2092132;28;20380;-71
2023/07/18 05:15:59;;;;;;;4.75;3.20;;;18.80;99.90;;;;;;2092752;28;20021;-71
2023/07/18 05:16:59;;;;;;;4.00;3.00;;;18.90;99.90;;;;;;2091672;28;20043;-71
2023/07/18 05:18:00;;;;;;;5.88;2.80;;;19.00;99.90;;;;;;2095840;28;20033;-71